Terminal Aerodrome Forecast
Issued by NWS Bismarck, ND

Home | Current Version | Previous Version | Graphics & Text | Print | Product List | Glossary On
Versions: 1 2 3 4 5 6 7 8 9 10 11 12 13 14 15
000
FTUS43 KBIS 010409 AAC
TAFBIS
TAF AMD
KBIS 010409Z 0104/0124 VRB20G35KT 2SM TSRA SCT025CB OVC040
     FM010430 08006KT P6SM VCTS BKN035CB OVC070
     FM011000 04006KT P6SM -SHRA BKN030 OVC040
     FM011400 09008KT P6SM SCT030 BKN050=

USA.gov is the U.S. government's official web portal to all federal, state and local government web resources and services.